createdAt,value
2023-09-09T00:00:40.383Z,15.38
2023-09-09T00:03:08.333Z,13.20
2023-09-09T00:05:35.315Z,12.65
2023-09-09T00:08:02.154Z,13.00
2023-09-09T00:10:31.085Z,14.23
2023-09-09T00:13:01.041Z,13.70
2023-09-09T00:15:27.917Z,14.55
2023-09-09T00:17:54.732Z,13.25
2023-09-09T00:20:33.505Z,13.85
2023-09-09T00:23:01.370Z,13.57
2023-09-09T00:25:28.086Z,18.00
2023-09-09T00:27:55.376Z,14.50
2023-09-09T00:30:22.124Z,13.50
2023-09-09T00:32:48.950Z,13.30
2023-09-09T00:35:15.851Z,15.57
2023-09-09T00:37:42.757Z,14.25
2023-09-09T00:40:09.933Z,12.27
2023-09-09T00:42:36.724Z,12.68
2023-09-09T00:45:03.971Z,14.32
2023-09-09T00:47:31.309Z,13.95
2023-09-09T00:49:59.630Z,13.40
2023-09-09T00:52:27.704Z,12.40
2023-09-09T00:54:54.827Z,12.88
2023-09-09T00:57:21.646Z,13.60
2023-09-09T00:59:49.038Z,12.88
2023-09-09T01:02:16.212Z,11.95
2023-09-09T01:04:43.219Z,12.90
2023-09-09T01:07:10.300Z,13.35
2023-09-09T01:09:37.515Z,12.13
2023-09-09T01:12:06.614Z,11.85
2023-09-09T01:14:33.615Z,14.13
2023-09-09T01:17:01.057Z,12.15
2023-09-09T01:19:28.743Z,12.32
2023-09-09T01:22:01.850Z,13.18
2023-09-09T01:24:28.785Z,11.30
2023-09-09T01:26:55.525Z,13.88
2023-09-09T01:29:23.368Z,14.40
2023-09-09T01:31:50.148Z,11.95
2023-09-09T01:34:16.862Z,12.52
2023-09-09T01:36:43.723Z,13.52
2023-09-09T01:39:10.635Z,13.57
2023-09-09T01:41:37.387Z,12.43
2023-09-09T01:44:04.536Z,10.88
2023-09-09T01:46:31.541Z,13.63
2023-09-09T01:48:58.941Z,13.13
2023-09-09T01:51:27.613Z,17.25
2023-09-09T01:53:54.353Z,12.18
2023-09-09T01:56:21.209Z,14.65
2023-09-09T01:58:47.934Z,13.55
2023-09-09T02:01:14.678Z,14.30
2023-09-09T02:03:41.911Z,12.73
2023-09-09T02:06:09.118Z,13.43
2023-09-09T02:08:35.977Z,15.02
2023-09-09T02:11:02.726Z,13.73
2023-09-09T02:13:29.631Z,15.07
2023-09-09T02:16:06.986Z,14.13
2023-09-09T02:18:35.141Z,14.43
2023-09-09T02:21:01.915Z,12.27
2023-09-09T02:23:28.872Z,13.50
2023-09-09T02:25:56.244Z,12.38
2023-09-09T02:28:24.742Z,16.20
2023-09-09T02:30:51.484Z,15.38
2023-09-09T02:33:18.353Z,11.80
2023-09-09T02:35:45.623Z,13.82
2023-09-09T02:38:12.503Z,14.57
2023-09-09T02:40:39.198Z,13.30
2023-09-09T02:43:05.930Z,15.15
2023-09-09T02:45:32.732Z,12.82
2023-09-09T02:47:59.593Z,15.00
2023-09-09T02:50:26.498Z,16.75
2023-09-09T02:52:53.217Z,14.80
2023-09-09T02:55:20.228Z,15.57
2023-09-09T02:57:50.713Z,14.85
2023-09-09T03:00:18.411Z,11.65
2023-09-09T03:02:46.722Z,13.73
2023-09-09T03:05:14.465Z,15.88
2023-09-09T03:07:41.193Z,12.13
2023-09-09T03:10:09.263Z,13.73
2023-09-09T03:12:36.075Z,12.60
2023-09-09T03:15:06.855Z,14.77
2023-09-09T03:17:33.847Z,15.30
2023-09-09T03:20:00.850Z,13.82
2023-09-09T03:22:27.634Z,12.77
2023-09-09T03:24:54.440Z,14.02
2023-09-09T03:27:22.444Z,12.63
2023-09-09T03:29:49.674Z,16.50
2023-09-09T03:32:16.682Z,14.60
2023-09-09T03:34:44.452Z,12.63
2023-09-09T03:37:11.235Z,13.48
2023-09-09T03:39:38.124Z,12.32
2023-09-09T03:42:05.284Z,12.07
2023-09-09T03:44:32.262Z,14.65
2023-09-09T03:46:59.021Z,12.95
2023-09-09T03:49:26.973Z,13.23
2023-09-09T03:51:53.791Z,12.38
2023-09-09T03:54:20.566Z,13.35
2023-09-09T03:56:47.484Z,12.35
2023-09-09T03:59:14.257Z,15.13
2023-09-09T04:01:41.254Z,13.18
2023-09-09T04:04:08.102Z,13.13
2023-09-09T04:06:34.916Z,12.50
2023-09-09T04:09:01.860Z,13.77
2023-09-09T04:11:28.805Z,13.77
2023-09-09T04:13:55.733Z,13.20
2023-09-09T04:16:22.592Z,11.95
2023-09-09T04:18:49.481Z,11.90
2023-09-09T04:21:18.268Z,12.07
2023-09-09T04:23:45.024Z,12.40
2023-09-09T04:26:11.791Z,13.20
2023-09-09T04:28:39.257Z,13.98
2023-09-09T04:31:06.121Z,14.60
2023-09-09T04:33:35.560Z,11.60
2023-09-09T04:36:03.253Z,12.60
2023-09-09T04:38:31.191Z,13.50
2023-09-09T04:40:58.682Z,14.48
2023-09-09T04:43:25.640Z,14.23
2023-09-09T04:45:52.599Z,20.73
2023-09-09T04:48:19.487Z,14.65
2023-09-09T04:50:46.886Z,14.70
2023-09-09T04:53:13.773Z,15.60
2023-09-09T04:55:40.937Z,15.85
2023-09-09T04:58:11.497Z,14.32
2023-09-09T05:00:38.526Z,14.55
2023-09-09T05:03:05.870Z,15.82
2023-09-09T05:05:32.812Z,18.17
2023-09-09T05:07:59.776Z,14.18
2023-09-09T05:10:28.594Z,14.73
2023-09-09T05:12:55.909Z,14.00
2023-09-09T05:15:22.865Z,13.63
2023-09-09T05:17:50.076Z,17.75
2023-09-09T05:20:17.133Z,17.95
2023-09-09T05:22:43.924Z,15.00
2023-09-09T05:25:10.800Z,12.88
2023-09-09T05:27:37.651Z,13.52
2023-09-09T05:30:06.337Z,14.10
2023-09-09T05:32:33.402Z,12.95
2023-09-09T05:35:00.244Z,11.60
2023-09-09T05:37:27.896Z,13.35
2023-09-09T05:39:54.791Z,12.75
2023-09-09T05:42:21.779Z,10.50
2023-09-09T05:44:48.739Z,13.63
2023-09-09T05:47:15.748Z,13.63
2023-09-09T05:49:42.519Z,11.43
2023-09-09T05:52:10.542Z,11.27
2023-09-09T05:54:37.447Z,14.60
2023-09-09T05:57:05.709Z,12.98
2023-09-09T05:59:33.589Z,11.93
2023-09-09T06:02:00.677Z,10.93
2023-09-09T06:04:27.583Z,12.48
2023-09-09T06:06:54.459Z,11.20
2023-09-09T06:09:21.339Z,11.98
2023-09-09T06:11:50.134Z,10.10
2023-09-09T06:14:16.964Z,11.75
2023-09-09T06:16:43.808Z,15.52
2023-09-09T06:19:10.645Z,12.75
2023-09-09T06:21:37.532Z,10.70
2023-09-09T06:24:04.963Z,12.00
2023-09-09T06:26:35.045Z,13.52
2023-09-09T06:29:02.551Z,13.18
2023-09-09T06:31:29.708Z,14.70
2023-09-09T06:33:57.437Z,13.13
2023-09-09T06:36:24.396Z,13.40
2023-09-09T06:38:52.776Z,12.40
2023-09-09T06:41:19.640Z,12.00
2023-09-09T06:43:46.535Z,13.07
2023-09-09T06:46:13.420Z,13.60
2023-09-09T06:48:40.156Z,12.95
2023-09-09T06:51:06.921Z,14.35
2023-09-09T06:53:34.128Z,15.48
2023-09-09T06:56:00.987Z,11.65
2023-09-09T06:58:27.850Z,15.35
2023-09-09T07:00:54.735Z,14.20
2023-09-09T07:03:22.427Z,11.68
2023-09-09T07:05:49.822Z,12.85
2023-09-09T07:08:16.673Z,15.07
2023-09-09T07:10:53.820Z,13.00
2023-09-09T07:13:24.937Z,15.20
2023-09-09T07:15:55.378Z,12.98
2023-09-09T07:18:23.120Z,14.57
2023-09-09T07:20:50.308Z,16.05
2023-09-09T07:23:18.254Z,14.38
2023-09-09T07:25:45.623Z,12.38
2023-09-09T07:28:12.574Z,13.85
2023-09-09T07:30:39.543Z,15.52
2023-09-09T07:33:06.381Z,16.67
2023-09-09T07:35:37.157Z,15.07
2023-09-09T07:38:07.877Z,12.80
2023-09-09T07:40:35.391Z,13.05
2023-09-09T07:43:02.865Z,15.30
2023-09-09T07:45:29.980Z,13.48
2023-09-09T07:47:57.992Z,13.82
2023-09-09T07:50:26.009Z,12.05
2023-09-09T07:52:52.752Z,12.93
2023-09-09T07:55:19.498Z,13.73
2023-09-09T07:57:46.269Z,12.02
2023-09-09T08:00:14.827Z,11.35
2023-09-09T08:02:41.909Z,14.55
2023-09-09T08:05:09.490Z,14.13
2023-09-09T08:07:36.344Z,13.73
2023-09-09T08:10:03.967Z,12.65
2023-09-09T08:12:30.779Z,13.63
2023-09-09T08:15:08.730Z,16.33
2023-09-09T08:17:35.915Z,13.70
2023-09-09T08:20:08.198Z,14.07
2023-09-09T08:22:35.864Z,16.70
2023-09-09T08:25:03.577Z,13.00
2023-09-09T08:27:30.527Z,12.38
2023-09-09T08:29:58.399Z,10.90
2023-09-09T08:32:25.614Z,11.02
2023-09-09T08:34:53.664Z,11.25
2023-09-09T08:37:20.541Z,13.25
2023-09-09T08:39:47.506Z,11.38
2023-09-09T08:42:51.886Z,12.18
2023-09-09T08:45:32.554Z,13.02
2023-09-09T08:48:04.748Z,12.43
2023-09-09T08:50:34.565Z,11.93
2023-09-09T08:53:03.850Z,13.27
2023-09-09T08:55:30.965Z,13.18
2023-09-09T08:57:57.811Z,14.38
2023-09-09T09:00:33.539Z,12.52
2023-09-09T09:03:04.868Z,11.55
2023-09-09T09:08:01.020Z,11.10
2023-09-09T09:10:28.214Z,16.13
2023-09-09T09:12:55.000Z,12.13
2023-09-09T09:15:22.945Z,10.63
2023-09-09T09:17:49.882Z,12.70
2023-09-09T09:20:26.649Z,13.30
2023-09-09T09:22:57.373Z,13.07
2023-09-09T09:25:24.860Z,9.85
2023-09-09T09:27:51.664Z,10.52
2023-09-09T09:30:28.938Z,9.45
2023-09-09T09:32:57.128Z,10.45
2023-09-09T09:35:24.354Z,12.07
2023-09-09T09:38:02.754Z,13.50
2023-09-09T09:40:31.393Z,15.30
2023-09-09T09:42:58.362Z,14.35
2023-09-09T09:45:29.650Z,15.27
2023-09-09T09:50:31.680Z,15.90
2023-09-09T09:53:04.109Z,13.98
2023-09-09T09:55:32.865Z,12.48
2023-09-09T09:58:09.199Z,12.48
2023-09-09T10:00:36.031Z,11.35
2023-09-09T10:03:03.947Z,11.80
2023-09-09T10:05:31.107Z,11.23
2023-09-09T10:08:06.435Z,9.68
2023-09-09T10:10:36.569Z,9.68
2023-09-09T10:13:10.193Z,9.85
2023-09-09T10:15:38.182Z,13.38
2023-09-09T10:18:06.828Z,9.57
2023-09-09T10:20:35.451Z,10.55
2023-09-09T10:23:04.890Z,11.50
2023-09-09T10:25:32.125Z,10.45
2023-09-09T10:27:59.340Z,9.70
2023-09-09T10:30:28.613Z,10.57
2023-09-09T10:32:59.357Z,10.10
2023-09-09T10:35:26.191Z,11.60
2023-09-09T10:37:56.193Z,11.02
2023-09-09T10:40:24.170Z,18.52
2023-09-09T10:42:52.470Z,11.38
2023-09-09T10:45:29.743Z,13.05
2023-09-09T10:48:07.283Z,10.85
2023-09-09T10:50:49.030Z,10.63
2023-09-09T10:53:31.503Z,11.73
2023-09-09T10:56:14.347Z,12.27
2023-09-09T10:58:41.149Z,12.63
2023-09-09T11:01:08.404Z,11.48
2023-09-09T11:03:52.471Z,11.52
2023-09-09T11:06:37.498Z,12.52
2023-09-09T11:09:04.331Z,9.65
2023-09-09T11:11:36.805Z,13.77
2023-09-09T11:14:05.570Z,14.70
2023-09-09T11:16:40.793Z,13.90
2023-09-09T11:19:12.841Z,10.27
2023-09-09T11:21:44.690Z,9.25
2023-09-09T11:24:12.070Z,12.68
2023-09-09T11:26:40.237Z,12.20
2023-09-09T11:29:14.862Z,12.52
2023-09-09T11:31:48.953Z,11.52
2023-09-09T11:34:16.224Z,12.20
2023-09-09T11:36:44.804Z,13.90
2023-09-09T11:39:12.642Z,10.30
2023-09-09T11:41:39.466Z,21.63
2023-09-09T11:44:08.671Z,11.15
2023-09-09T11:46:49.673Z,8.68
2023-09-09T11:49:20.382Z,8.32
2023-09-09T11:51:47.613Z,9.27
2023-09-09T11:54:20.894Z,8.63
2023-09-09T11:56:48.266Z,8.93
2023-09-09T11:59:15.155Z,10.15
2023-09-09T12:01:43.647Z,10.50
2023-09-09T12:04:12.377Z,8.25
2023-09-09T12:06:42.759Z,7.97
2023-09-09T12:09:09.964Z,7.40
2023-09-09T12:11:37.528Z,9.25
2023-09-09T12:14:05.172Z,9.27
2023-09-09T12:16:33.718Z,9.75
2023-09-09T12:19:00.503Z,8.90
2023-09-09T12:21:27.368Z,9.45
2023-09-09T12:23:59.562Z,8.68
2023-09-09T12:26:26.814Z,10.73
2023-09-09T12:29:11.396Z,9.18
2023-09-09T12:32:10.751Z,8.10
2023-09-09T12:34:37.922Z,7.10
2023-09-09T12:37:04.744Z,5.85
2023-09-09T12:39:32.020Z,7.80
2023-09-09T12:42:06.894Z,7.18
2023-09-09T12:44:47.932Z,7.13
2023-09-09T12:47:21.042Z,6.57
2023-09-09T12:49:48.021Z,6.60
2023-09-09T12:52:14.949Z,5.63
2023-09-09T12:54:41.746Z,7.53
2023-09-09T12:57:08.619Z,6.60
2023-09-09T12:59:35.378Z,6.78
2023-09-09T13:02:02.766Z,6.80
2023-09-09T13:04:29.515Z,6.22
2023-09-09T13:06:56.419Z,8.45
2023-09-09T13:09:23.620Z,18.00
2023-09-09T13:11:50.563Z,23.70
2023-09-09T13:14:25.355Z,18.30
2023-09-09T13:16:54.915Z,8.40
2023-09-09T13:19:22.574Z,7.75
2023-09-09T13:21:49.754Z,12.82
2023-09-09T13:24:16.572Z,9.82
2023-09-09T13:26:43.377Z,10.20
2023-09-09T13:29:10.873Z,8.77
2023-09-09T13:31:37.842Z,6.97
2023-09-09T13:34:04.744Z,7.53
2023-09-09T13:36:31.653Z,8.50
2023-09-09T13:38:58.449Z,6.78
2023-09-09T13:41:29.753Z,8.68
2023-09-09T13:43:56.794Z,8.23
2023-09-09T13:46:23.788Z,12.43
2023-09-09T13:48:50.542Z,13.93
2023-09-09T13:51:17.438Z,9.40
2023-09-09T13:53:44.450Z,8.27
2023-09-09T13:56:11.716Z,5.72
2023-09-09T13:58:38.487Z,7.75
2023-09-09T14:01:05.366Z,8.05
2023-09-09T14:03:32.271Z,6.95
2023-09-09T14:05:59.709Z,6.65
2023-09-09T14:08:26.975Z,7.93
2023-09-09T14:10:54.713Z,9.27
2023-09-09T14:13:21.533Z,7.78
2023-09-09T14:15:48.941Z,6.25
2023-09-09T14:18:16.016Z,6.82
2023-09-09T14:20:44.448Z,13.68
2023-09-09T14:23:11.887Z,33.05
2023-09-09T14:25:38.940Z,21.00
2023-09-09T14:28:06.569Z,7.88
2023-09-09T14:30:33.948Z,10.18
2023-09-09T14:33:00.785Z,9.68
2023-09-09T14:35:27.653Z,8.30
2023-09-09T14:37:54.365Z,8.77
2023-09-09T14:40:21.139Z,9.00
2023-09-09T14:42:47.889Z,6.18
2023-09-09T14:45:14.714Z,6.90
2023-09-09T14:47:41.565Z,7.80
2023-09-09T14:50:08.793Z,7.43
2023-09-09T14:52:35.572Z,7.40
2023-09-09T14:55:02.864Z,7.88
2023-09-09T14:57:29.805Z,6.00
2023-09-09T14:59:56.564Z,7.32
2023-09-09T15:02:23.351Z,20.88
2023-09-09T15:04:50.527Z,8.57
2023-09-09T15:07:20.178Z,7.95
2023-09-09T15:09:48.270Z,8.15
2023-09-09T15:12:15.052Z,6.35
2023-09-09T15:14:41.827Z,7.75
2023-09-09T15:17:08.604Z,6.45
2023-09-09T15:19:35.510Z,6.90
2023-09-09T15:22:02.559Z,9.95
2023-09-09T15:24:29.284Z,6.57
2023-09-09T15:26:55.984Z,6.30
2023-09-09T15:29:22.694Z,5.57
2023-09-09T15:31:49.476Z,6.93
2023-09-09T15:34:16.285Z,7.82
2023-09-09T15:36:43.041Z,8.13
2023-09-09T15:39:12.748Z,6.88
2023-09-09T15:41:41.829Z,5.53
2023-09-09T15:44:08.957Z,8.15
2023-09-09T15:46:35.770Z,6.75
2023-09-09T15:49:02.487Z,8.05
2023-09-09T15:51:29.235Z,9.90
2023-09-09T15:53:55.915Z,6.43
2023-09-09T15:56:25.260Z,6.70
2023-09-09T15:58:52.549Z,7.82
2023-09-09T16:01:19.598Z,6.45
2023-09-09T16:03:46.453Z,5.72
2023-09-09T16:06:13.214Z,5.13
2023-09-09T16:08:41.163Z,8.90
2023-09-09T16:11:08.351Z,8.80
2023-09-09T16:13:35.203Z,7.70
2023-09-09T16:16:07.456Z,7.72
2023-09-09T16:18:36.439Z,7.35
2023-09-09T16:21:03.620Z,8.20
2023-09-09T16:23:30.641Z,5.38
2023-09-09T16:25:57.750Z,6.75
2023-09-09T16:28:25.623Z,5.53
2023-09-09T16:30:52.424Z,6.93
2023-09-09T16:33:19.321Z,7.20
2023-09-09T16:35:46.981Z,5.93
2023-09-09T16:38:13.933Z,5.78
2023-09-09T16:40:40.786Z,6.65
2023-09-09T16:43:07.750Z,7.45
2023-09-09T16:45:34.535Z,7.53
2023-09-09T16:48:04.937Z,10.25
2023-09-09T16:50:31.840Z,10.85
2023-09-09T16:52:58.840Z,6.68
2023-09-09T16:55:25.884Z,5.63
2023-09-09T16:57:52.649Z,5.90
2023-09-09T17:00:19.560Z,8.02
2023-09-09T17:02:46.346Z,6.82
2023-09-09T17:05:13.151Z,5.93
2023-09-09T17:07:39.928Z,7.38
2023-09-09T17:10:07.315Z,5.50
2023-09-09T17:12:33.977Z,5.32
2023-09-09T17:15:00.719Z,11.43
2023-09-09T17:17:27.461Z,7.82
2023-09-09T17:19:54.458Z,6.07
2023-09-09T17:22:21.251Z,9.82
2023-09-09T17:24:49.601Z,8.45
2023-09-09T17:27:16.334Z,6.13
2023-09-09T17:29:43.990Z,6.93
2023-09-09T17:32:11.039Z,6.50
2023-09-09T17:34:43.163Z,5.93
2023-09-09T17:37:10.601Z,9.13
2023-09-09T17:39:37.426Z,7.43
2023-09-09T17:42:04.554Z,5.97
2023-09-09T17:44:31.367Z,6.78
2023-09-09T17:46:58.659Z,8.80
2023-09-09T17:49:27.181Z,9.05
2023-09-09T17:51:55.374Z,4.90
2023-09-09T17:54:26.436Z,5.32
2023-09-09T17:56:55.430Z,7.93
2023-09-09T17:59:22.538Z,6.28
2023-09-09T18:01:49.971Z,6.97
2023-09-09T18:04:17.553Z,8.52
2023-09-09T18:06:44.430Z,8.88
2023-09-09T18:09:11.201Z,7.57
2023-09-09T18:11:37.944Z,6.57
2023-09-09T18:14:04.806Z,7.55
2023-09-09T18:16:32.639Z,8.18
2023-09-09T18:18:59.884Z,9.80
2023-09-09T18:21:26.733Z,5.68
2023-09-09T18:23:53.901Z,6.70
2023-09-09T18:26:20.986Z,8.73
2023-09-09T18:28:48.518Z,6.88
2023-09-09T18:31:15.602Z,6.85
2023-09-09T18:33:42.690Z,7.10
2023-09-09T18:36:09.518Z,8.48
2023-09-09T18:38:36.943Z,9.90
2023-09-09T18:41:04.418Z,8.65
2023-09-09T18:43:31.404Z,8.77
2023-09-09T18:45:59.644Z,10.70
2023-09-09T18:48:27.250Z,10.57
2023-09-09T18:50:53.974Z,12.85
2023-09-09T18:53:21.127Z,9.57
2023-09-09T18:55:48.195Z,9.02
2023-09-09T18:58:15.082Z,9.63
2023-09-09T19:00:42.054Z,9.50
2023-09-09T19:03:09.132Z,9.82
2023-09-09T19:05:36.442Z,11.30
2023-09-09T19:08:03.829Z,8.57
2023-09-09T19:10:30.686Z,9.23
2023-09-09T19:12:57.368Z,8.95
2023-09-09T19:15:24.651Z,9.07
2023-09-09T19:17:51.743Z,12.38
2023-09-09T19:20:18.790Z,11.55
2023-09-09T19:22:48.202Z,10.48
2023-09-09T19:25:15.250Z,5.93
2023-09-09T19:27:42.561Z,9.32
2023-09-09T19:30:09.758Z,10.98
2023-09-09T19:32:36.814Z,11.25
2023-09-09T19:35:04.228Z,9.25
2023-09-09T19:37:30.979Z,11.38
2023-09-09T19:40:01.614Z,11.93
2023-09-09T19:42:29.316Z,11.77
2023-09-09T19:44:56.889Z,8.98
2023-09-09T19:47:25.909Z,9.52
2023-09-09T19:49:54.288Z,13.88
2023-09-09T19:52:21.410Z,10.05
2023-09-09T19:54:48.278Z,11.73
2023-09-09T19:57:15.126Z,8.25
2023-09-09T19:59:41.961Z,10.23
2023-09-09T20:02:08.789Z,13.23
2023-09-09T20:04:35.789Z,12.63
2023-09-09T20:07:02.488Z,9.18
2023-09-09T20:09:29.208Z,11.02
2023-09-09T20:11:55.986Z,10.13
2023-09-09T20:14:22.913Z,9.75
2023-09-09T20:16:49.675Z,7.70
2023-09-09T20:19:16.538Z,8.18
2023-09-09T20:21:43.253Z,8.90
2023-09-09T20:24:09.983Z,9.82
2023-09-09T20:26:36.697Z,9.55
2023-09-09T20:29:03.469Z,11.07
2023-09-09T20:31:30.398Z,11.93
2023-09-09T20:33:57.138Z,10.02
2023-09-09T20:36:24.731Z,9.50
2023-09-09T20:38:51.500Z,7.60
2023-09-09T20:41:18.215Z,9.95
2023-09-09T20:43:45.001Z,9.15
2023-09-09T20:46:12.916Z,14.82
2023-09-09T20:48:40.256Z,9.27
2023-09-09T20:51:07.218Z,8.43
2023-09-09T20:53:36.889Z,10.52
2023-09-09T20:56:11.613Z,11.88
2023-09-09T20:58:41.403Z,10.35
2023-09-09T21:01:09.436Z,10.13
2023-09-09T21:03:36.650Z,7.95
2023-09-09T21:06:03.683Z,11.57
2023-09-09T21:08:30.512Z,13.15
2023-09-09T21:10:57.265Z,12.88
2023-09-09T21:13:24.426Z,13.02
2023-09-09T21:15:51.501Z,11.05
2023-09-09T21:18:18.722Z,9.57
2023-09-09T21:20:46.022Z,8.88
2023-09-09T21:23:13.810Z,10.18
2023-09-09T21:25:43.401Z,8.15
2023-09-09T21:28:10.129Z,12.80
2023-09-09T21:30:38.020Z,10.57
2023-09-09T21:33:06.500Z,10.48
2023-09-09T21:35:33.652Z,14.38
2023-09-09T21:38:00.462Z,12.90
2023-09-09T21:40:27.318Z,13.73
2023-09-09T21:42:54.239Z,11.98
2023-09-09T21:45:23.955Z,12.23
2023-09-09T21:47:51.253Z,11.52
2023-09-09T21:50:18.081Z,12.88
2023-09-09T21:52:44.794Z,15.15
2023-09-09T21:55:11.524Z,11.40
2023-09-09T21:57:38.280Z,10.25
2023-09-09T22:00:20.105Z,11.57
2023-09-09T22:05:14.427Z,12.32
2023-09-09T22:07:41.283Z,18.50
2023-09-09T22:10:09.038Z,18.50
2023-09-09T22:12:38.042Z,21.30
2023-09-09T22:15:07.379Z,21.42
2023-09-09T22:17:35.431Z,16.92
2023-09-09T22:20:06.111Z,11.15
2023-09-09T22:22:32.991Z,9.90
2023-09-09T22:24:59.729Z,10.77
2023-09-09T22:27:26.685Z,13.20
2023-09-09T22:29:56.809Z,37.83
2023-09-09T22:32:23.680Z,28.88
2023-09-09T22:34:55.342Z,13.00
2023-09-09T22:37:23.934Z,10.02
2023-09-09T22:39:51.692Z,10.57
2023-09-09T22:42:18.378Z,11.88
2023-09-09T22:44:45.124Z,9.98
2023-09-09T22:47:11.954Z,15.00
2023-09-09T22:49:40.544Z,10.70
2023-09-09T22:52:08.573Z,10.43
2023-09-09T22:54:35.908Z,10.82
2023-09-09T22:57:02.815Z,27.02
2023-09-09T22:59:29.579Z,59.13
2023-09-09T23:01:56.416Z,48.85
2023-09-09T23:04:23.260Z,20.20
2023-09-09T23:06:51.177Z,17.77
2023-09-09T23:09:18.167Z,14.65
2023-09-09T23:11:44.912Z,13.00
2023-09-09T23:14:11.656Z,14.65
2023-09-09T23:16:39.036Z,15.23
2023-09-09T23:19:07.985Z,19.25
2023-09-09T23:21:35.548Z,29.05
2023-09-09T23:24:04.999Z,42.90
2023-09-09T23:26:31.816Z,16.02
2023-09-09T23:28:58.898Z,15.85
2023-09-09T23:31:26.012Z,15.55
2023-09-09T23:33:52.773Z,13.07
2023-09-09T23:36:19.495Z,14.45
2023-09-09T23:38:46.250Z,12.73
2023-09-09T23:41:13.047Z,13.48
2023-09-09T23:43:39.908Z,21.40
2023-09-09T23:46:06.774Z,11.82
2023-09-09T23:48:33.779Z,11.50
2023-09-09T23:51:01.563Z,15.38
2023-09-09T23:53:29.189Z,9.70
2023-09-09T23:55:58.832Z,10.98
2023-09-09T23:58:25.670Z,10.05
